sensor_id;sensor_type;location;lat;lon;timestamp;P1;durP1;ratioP1;P2;durP2;ratioP2
26600;SDS011;14241;49.260;10.496;2022-12-31T00:01:45;1.20;;;1.10;;
26600;SDS011;14241;49.260;10.496;2022-12-31T00:04:10;2.47;;;1.20;;
26600;SDS011;14241;49.260;10.496;2022-12-31T00:06:36;1.33;;;1.23;;
26600;SDS011;14241;49.260;10.496;2022-12-31T00:09:02;1.83;;;1.25;;
26600;SDS011;14241;49.260;10.496;2022-12-31T00:11:28;1.40;;;1.02;;
26600;SDS011;14241;49.260;10.496;2022-12-31T00:13:55;3.05;;;1.05;;
26600;SDS011;14241;49.260;10.496;2022-12-31T00:16:21;2.30;;;1.30;;
26600;SDS011;14241;49.260;10.496;2022-12-31T00:18:48;1.15;;;0.90;;
26600;SDS011;14241;49.260;10.496;2022-12-31T00:21:14;1.40;;;1.20;;
26600;SDS011;14241;49.260;10.496;2022-12-31T00:23:39;2.17;;;1.02;;
26600;SDS011;14241;49.260;10.496;2022-12-31T00:26:05;2.80;;;1.10;;
26600;SDS011;14241;49.260;10.496;2022-12-31T00:28:31;5.05;;;1.20;;
26600;SDS011;14241;49.260;10.496;2022-12-31T00:31:02;2.70;;;1.25;;
26600;SDS011;14241;49.260;10.496;2022-12-31T00:33:27;1.50;;;1.40;;
26600;SDS011;14241;49.260;10.496;2022-12-31T00:35:53;2.65;;;1.00;;
26600;SDS011;14241;49.260;10.496;2022-12-31T00:38:18;1.37;;;1.00;;
26600;SDS011;14241;49.260;10.496;2022-12-31T00:40:43;1.10;;;1.00;;
26600;SDS011;14241;49.260;10.496;2022-12-31T00:43:09;1.80;;;1.00;;
26600;SDS011;14241;49.260;10.496;2022-12-31T00:45:34;1.30;;;0.90;;
26600;SDS011;14241;49.260;10.496;2022-12-31T00:48:00;1.37;;;1.17;;
26600;SDS011;14241;49.260;10.496;2022-12-31T00:50:25;1.38;;;1.27;;
26600;SDS011;14241;49.260;10.496;2022-12-31T00:52:50;1.60;;;1.37;;
26600;SDS011;14241;49.260;10.496;2022-12-31T00:55:15;1.47;;;1.10;;
26600;SDS011;14241;49.260;10.496;2022-12-31T00:57:40;1.40;;;1.20;;
26600;SDS011;14241;49.260;10.496;2022-12-31T01:00:06;2.13;;;1.30;;
26600;SDS011;14241;49.260;10.496;2022-12-31T01:02:32;1.30;;;1.20;;
26600;SDS011;14241;49.260;10.496;2022-12-31T01:04:58;2.57;;;1.30;;
26600;SDS011;14241;49.260;10.496;2022-12-31T01:07:23;1.20;;;1.10;;
26600;SDS011;14241;49.260;10.496;2022-12-31T01:09:48;2.23;;;1.03;;
26600;SDS011;14241;49.260;10.496;2022-12-31T01:12:13;2.25;;;1.38;;
26600;SDS011;14241;49.260;10.496;2022-12-31T01:14:38;1.20;;;1.10;;
26600;SDS011;14241;49.260;10.496;2022-12-31T01:17:04;1.97;;;1.30;;
26600;SDS011;14241;49.260;10.496;2022-12-31T01:19:29;3.08;;;1.25;;
26600;SDS011;14241;49.260;10.496;2022-12-31T01:21:54;2.45;;;1.40;;
26600;SDS011;14241;49.260;10.496;2022-12-31T01:24:20;1.33;;;1.00;;
26600;SDS011;14241;49.260;10.496;2022-12-31T01:26:45;2.38;;;0.95;;
26600;SDS011;14241;49.260;10.496;2022-12-31T01:29:12;2.35;;;1.40;;
26600;SDS011;14241;49.260;10.496;2022-12-31T01:31:38;1.48;;;1.00;;
26600;SDS011;14241;49.260;10.496;2022-12-31T01:34:04;3.08;;;1.30;;
26600;SDS011;14241;49.260;10.496;2022-12-31T01:36:30;3.95;;;1.10;;
26600;SDS011;14241;49.260;10.496;2022-12-31T01:38:56;1.35;;;1.02;;
26600;SDS011;14241;49.260;10.496;2022-12-31T01:41:23;4.10;;;1.00;;
26600;SDS011;14241;49.260;10.496;2022-12-31T01:46:19;3.20;;;1.20;;
26600;SDS011;14241;49.260;10.496;2022-12-31T01:48:48;4.53;;;1.15;;
26600;SDS011;14241;49.260;10.496;2022-12-31T01:51:14;2.90;;;1.17;;
26600;SDS011;14241;49.260;10.496;2022-12-31T01:53:40;3.35;;;1.00;;
26600;SDS011;14241;49.260;10.496;2022-12-31T01:56:05;1.25;;;1.08;;
26600;SDS011;14241;49.260;10.496;2022-12-31T01:58:38;1.40;;;1.00;;
26600;SDS011;14241;49.260;10.496;2022-12-31T02:01:04;3.42;;;1.30;;
26600;SDS011;14241;49.260;10.496;2022-12-31T02:03:31;2.20;;;1.25;;
26600;SDS011;14241;49.260;10.496;2022-12-31T02:05:59;1.35;;;1.25;;
26600;SDS011;14241;49.260;10.496;2022-12-31T02:08:26;2.40;;;1.20;;
26600;SDS011;14241;49.260;10.496;2022-12-31T02:10:53;1.40;;;0.95;;
26600;SDS011;14241;49.260;10.496;2022-12-31T02:13:18;4.00;;;1.33;;
26600;SDS011;14241;49.260;10.496;2022-12-31T02:20:53;1.05;;;0.95;;
26600;SDS011;14241;49.260;10.496;2022-12-31T02:31:06;1.13;;;0.90;;
26600;SDS011;14241;49.260;10.496;2022-12-31T02:33:55;2.00;;;1.00;;
26600;SDS011;14241;49.260;10.496;2022-12-31T02:36:19;1.10;;;1.00;;
26600;SDS011;14241;49.260;10.496;2022-12-31T02:38:46;3.28;;;1.10;;
26600;SDS011;14241;49.260;10.496;2022-12-31T02:41:12;1.55;;;1.20;;
26600;SDS011;14241;49.260;10.496;2022-12-31T02:43:58;1.30;;;1.20;;
26600;SDS011;14241;49.260;10.496;2022-12-31T02:46:38;1.08;;;0.93;;
26600;SDS011;14241;49.260;10.496;2022-12-31T02:49:08;1.65;;;0.90;;
26600;SDS011;14241;49.260;10.496;2022-12-31T02:54:09;3.03;;;1.00;;
26600;SDS011;14241;49.260;10.496;2022-12-31T02:59:32;2.03;;;0.82;;
26600;SDS011;14241;49.260;10.496;2022-12-31T03:02:18;0.82;;;0.82;;
26600;SDS011;14241;49.260;10.496;2022-12-31T03:04:53;1.77;;;1.17;;
26600;SDS011;14241;49.260;10.496;2022-12-31T03:07:19;3.33;;;0.98;;
26600;SDS011;14241;49.260;10.496;2022-12-31T03:09:47;1.00;;;0.95;;
26600;SDS011;14241;49.260;10.496;2022-12-31T03:12:12;3.40;;;0.88;;
26600;SDS011;14241;49.260;10.496;2022-12-31T03:14:56;3.85;;;1.15;;
26600;SDS011;14241;49.260;10.496;2022-12-31T03:17:21;3.10;;;1.10;;
26600;SDS011;14241;49.260;10.496;2022-12-31T03:19:47;2.92;;;1.17;;
26600;SDS011;14241;49.260;10.496;2022-12-31T03:22:32;3.42;;;1.20;;
26600;SDS011;14241;49.260;10.496;2022-12-31T03:24:59;1.95;;;0.90;;
26600;SDS011;14241;49.260;10.496;2022-12-31T03:27:43;1.17;;;1.00;;
26600;SDS011;14241;49.260;10.496;2022-12-31T03:30:09;4.45;;;1.10;;
26600;SDS011;14241;49.260;10.496;2022-12-31T03:32:34;2.03;;;1.30;;
26600;SDS011;14241;49.260;10.496;2022-12-31T03:34:59;1.77;;;1.20;;
26600;SDS011;14241;49.260;10.496;2022-12-31T03:37:24;2.07;;;1.20;;
26600;SDS011;14241;49.260;10.496;2022-12-31T03:39:50;3.23;;;1.10;;
26600;SDS011;14241;49.260;10.496;2022-12-31T03:42:15;1.83;;;1.20;;
26600;SDS011;14241;49.260;10.496;2022-12-31T03:44:40;1.60;;;0.80;;
26600;SDS011;14241;49.260;10.496;2022-12-31T03:47:05;2.73;;;1.13;;
26600;SDS011;14241;49.260;10.496;2022-12-31T03:49:31;2.17;;;1.20;;
26600;SDS011;14241;49.260;10.496;2022-12-31T03:51:56;5.97;;;3.57;;
26600;SDS011;14241;49.260;10.496;2022-12-31T03:54:21;2.77;;;2.40;;
26600;SDS011;14241;49.260;10.496;2022-12-31T03:56:46;2.77;;;1.10;;
26600;SDS011;14241;49.260;10.496;2022-12-31T03:59:11;5.53;;;2.63;;
26600;SDS011;14241;49.260;10.496;2022-12-31T04:01:36;4.82;;;3.80;;
26600;SDS011;14241;49.260;10.496;2022-12-31T04:04:02;6.83;;;6.33;;
26600;SDS011;14241;49.260;10.496;2022-12-31T04:06:27;2.80;;;2.20;;
26600;SDS011;14241;49.260;10.496;2022-12-31T04:08:52;4.33;;;2.97;;
26600;SDS011;14241;49.260;10.496;2022-12-31T04:11:17;4.18;;;3.78;;
26600;SDS011;14241;49.260;10.496;2022-12-31T04:13:42;17.97;;;16.57;;
26600;SDS011;14241;49.260;10.496;2022-12-31T04:16:08;4.07;;;3.63;;
26600;SDS011;14241;49.260;10.496;2022-12-31T04:18:34;6.10;;;5.50;;
26600;SDS011;14241;49.260;10.496;2022-12-31T04:21:03;10.48;;;9.55;;
26600;SDS011;14241;49.260;10.496;2022-12-31T04:23:28;6.72;;;6.13;;
26600;SDS011;14241;49.260;10.496;2022-12-31T04:25:53;9.15;;;6.65;;
26600;SDS011;14241;49.260;10.496;2022-12-31T04:28:19;7.97;;;5.75;;
26600;SDS011;14241;49.260;10.496;2022-12-31T04:30:44;5.68;;;5.18;;
26600;SDS011;14241;49.260;10.496;2022-12-31T04:33:09;6.57;;;5.75;;
26600;SDS011;14241;49.260;10.496;2022-12-31T04:35:34;3.27;;;3.03;;
26600;SDS011;14241;49.260;10.496;2022-12-31T04:37:59;5.03;;;2.85;;
26600;SDS011;14241;49.260;10.496;2022-12-31T04:40:25;7.43;;;5.57;;
26600;SDS011;14241;49.260;10.496;2022-12-31T04:42:50;2.70;;;2.50;;
26600;SDS011;14241;49.260;10.496;2022-12-31T04:45:16;6.10;;;4.33;;
26600;SDS011;14241;49.260;10.496;2022-12-31T04:47:41;4.22;;;2.30;;
26600;SDS011;14241;49.260;10.496;2022-12-31T04:50:07;4.00;;;3.70;;
26600;SDS011;14241;49.260;10.496;2022-12-31T04:52:32;3.28;;;3.00;;
26600;SDS011;14241;49.260;10.496;2022-12-31T04:54:57;3.05;;;2.85;;
26600;SDS011;14241;49.260;10.496;2022-12-31T04:57:22;5.60;;;3.20;;
26600;SDS011;14241;49.260;10.496;2022-12-31T04:59:48;6.80;;;3.60;;
26600;SDS011;14241;49.260;10.496;2022-12-31T05:02:13;5.07;;;4.20;;
26600;SDS011;14241;49.260;10.496;2022-12-31T05:04:38;3.70;;;3.28;;
26600;SDS011;14241;49.260;10.496;2022-12-31T05:07:03;2.83;;;2.53;;
26600;SDS011;14241;49.260;10.496;2022-12-31T05:09:29;2.28;;;1.63;;
26600;SDS011;14241;49.260;10.496;2022-12-31T05:11:55;3.75;;;2.67;;
26600;SDS011;14241;49.260;10.496;2022-12-31T05:14:20;2.95;;;1.80;;
26600;SDS011;14241;49.260;10.496;2022-12-31T05:16:45;3.72;;;3.38;;
26600;SDS011;14241;49.260;10.496;2022-12-31T05:19:11;2.92;;;2.60;;
26600;SDS011;14241;49.260;10.496;2022-12-31T05:21:36;3.05;;;2.75;;
26600;SDS011;14241;49.260;10.496;2022-12-31T05:24:01;2.55;;;2.08;;
26600;SDS011;14241;49.260;10.496;2022-12-31T05:26:27;5.38;;;2.78;;
26600;SDS011;14241;49.260;10.496;2022-12-31T05:28:52;5.30;;;1.67;;
26600;SDS011;14241;49.260;10.496;2022-12-31T05:31:19;3.92;;;1.90;;
26600;SDS011;14241;49.260;10.496;2022-12-31T05:33:44;3.75;;;2.28;;
26600;SDS011;14241;49.260;10.496;2022-12-31T05:36:09;3.50;;;2.30;;
26600;SDS011;14241;49.260;10.496;2022-12-31T05:38:35;2.40;;;2.13;;
26600;SDS011;14241;49.260;10.496;2022-12-31T05:41:01;5.47;;;2.42;;
26600;SDS011;14241;49.260;10.496;2022-12-31T05:43:27;4.05;;;2.03;;
26600;SDS011;14241;49.260;10.496;2022-12-31T05:45:54;4.07;;;2.00;;
26600;SDS011;14241;49.260;10.496;2022-12-31T05:48:19;1.98;;;1.88;;
26600;SDS011;14241;49.260;10.496;2022-12-31T05:50:44;2.60;;;1.10;;
26600;SDS011;14241;49.260;10.496;2022-12-31T05:53:09;1.53;;;1.20;;
26600;SDS011;14241;49.260;10.496;2022-12-31T05:55:35;2.25;;;1.45;;
26600;SDS011;14241;49.260;10.496;2022-12-31T05:58:00;1.40;;;1.23;;
26600;SDS011;14241;49.260;10.496;2022-12-31T06:00:25;2.87;;;1.63;;
26600;SDS011;14241;49.260;10.496;2022-12-31T06:02:50;1.87;;;1.20;;
26600;SDS011;14241;49.260;10.496;2022-12-31T06:05:15;3.27;;;1.83;;
26600;SDS011;14241;49.260;10.496;2022-12-31T06:07:42;3.88;;;1.27;;
26600;SDS011;14241;49.260;10.496;2022-12-31T06:10:07;2.67;;;1.17;;
26600;SDS011;14241;49.260;10.496;2022-12-31T06:12:32;4.35;;;3.75;;
26600;SDS011;14241;49.260;10.496;2022-12-31T06:14:59;2.58;;;1.65;;
26600;SDS011;14241;49.260;10.496;2022-12-31T06:17:24;3.83;;;1.23;;
26600;SDS011;14241;49.260;10.496;2022-12-31T06:19:49;2.30;;;1.63;;
26600;SDS011;14241;49.260;10.496;2022-12-31T06:22:14;1.70;;;1.60;;
26600;SDS011;14241;49.260;10.496;2022-12-31T06:24:40;3.20;;;1.30;;
26600;SDS011;14241;49.260;10.496;2022-12-31T06:27:06;1.40;;;1.30;;
26600;SDS011;14241;49.260;10.496;2022-12-31T06:29:31;3.60;;;1.20;;
26600;SDS011;14241;49.260;10.496;2022-12-31T06:31:56;4.03;;;1.50;;
26600;SDS011;14241;49.260;10.496;2022-12-31T06:34:23;2.70;;;1.60;;
26600;SDS011;14241;49.260;10.496;2022-12-31T06:36:49;1.75;;;1.00;;
26600;SDS011;14241;49.260;10.496;2022-12-31T06:39:14;3.30;;;1.27;;
26600;SDS011;14241;49.260;10.496;2022-12-31T06:41:39;1.00;;;0.90;;
26600;SDS011;14241;49.260;10.496;2022-12-31T06:44:05;2.63;;;1.35;;
26600;SDS011;14241;49.260;10.496;2022-12-31T06:46:30;1.50;;;0.90;;
26600;SDS011;14241;49.260;10.496;2022-12-31T06:48:55;1.30;;;1.20;;
26600;SDS011;14241;49.260;10.496;2022-12-31T06:51:20;3.37;;;1.10;;
26600;SDS011;14241;49.260;10.496;2022-12-31T06:53:46;1.40;;;1.10;;
26600;SDS011;14241;49.260;10.496;2022-12-31T06:56:13;1.33;;;1.23;;
26600;SDS011;14241;49.260;10.496;2022-12-31T06:58:39;2.72;;;1.00;;
26600;SDS011;14241;49.260;10.496;2022-12-31T07:05:57;1.00;;;1.00;;
26600;SDS011;14241;49.260;10.496;2022-12-31T07:10:59;1.50;;;1.40;;
26600;SDS011;14241;49.260;10.496;2022-12-31T07:13:32;2.00;;;1.35;;
26600;SDS011;14241;49.260;10.496;2022-12-31T07:18:38;4.90;;;1.30;;
26600;SDS011;14241;49.260;10.496;2022-12-31T07:21:12;2.03;;;1.80;;
26600;SDS011;14241;49.260;10.496;2022-12-31T07:23:39;3.22;;;1.23;;
26600;SDS011;14241;49.260;10.496;2022-12-31T07:26:06;0.85;;;0.85;;
26600;SDS011;14241;49.260;10.496;2022-12-31T07:34:05;4.15;;;1.25;;
26600;SDS011;14241;49.260;10.496;2022-12-31T07:36:43;0.80;;;0.80;;
26600;SDS011;14241;49.260;10.496;2022-12-31T07:39:19;1.83;;;1.10;;
26600;SDS011;14241;49.260;10.496;2022-12-31T07:41:49;1.00;;;0.88;;
26600;SDS011;14241;49.260;10.496;2022-12-31T07:44:23;1.90;;;0.98;;
26600;SDS011;14241;49.260;10.496;2022-12-31T07:46:58;1.80;;;1.42;;
26600;SDS011;14241;49.260;10.496;2022-12-31T07:49:24;2.28;;;2.00;;
26600;SDS011;14241;49.260;10.496;2022-12-31T07:51:51;2.70;;;1.38;;
26600;SDS011;14241;49.260;10.496;2022-12-31T07:54:17;1.80;;;1.20;;
26600;SDS011;14241;49.260;10.496;2022-12-31T07:56:42;0.90;;;0.90;;
26600;SDS011;14241;49.260;10.496;2022-12-31T08:07:19;1.48;;;0.98;;
26600;SDS011;14241;49.260;10.496;2022-12-31T08:12:16;3.33;;;0.93;;
26600;SDS011;14241;49.260;10.496;2022-12-31T08:14:43;1.67;;;0.77;;
26600;SDS011;14241;49.260;10.496;2022-12-31T08:17:10;1.15;;;0.80;;
26600;SDS011;14241;49.260;10.496;2022-12-31T08:19:36;1.95;;;0.68;;
26600;SDS011;14241;49.260;10.496;2022-12-31T08:29:44;1.15;;;0.98;;
26600;SDS011;14241;49.260;10.496;2022-12-31T08:32:20;1.67;;;1.30;;
26600;SDS011;14241;49.260;10.496;2022-12-31T08:35:04;0.85;;;0.85;;
26600;SDS011;14241;49.260;10.496;2022-12-31T08:40:02;2.03;;;0.70;;
26600;SDS011;14241;49.260;10.496;2022-12-31T08:45:34;1.23;;;0.95;;
26600;SDS011;14241;49.260;10.496;2022-12-31T08:48:03;1.15;;;1.05;;
26600;SDS011;14241;49.260;10.496;2022-12-31T08:50:30;0.70;;;0.68;;
26600;SDS011;14241;49.260;10.496;2022-12-31T08:52:55;1.40;;;0.70;;
26600;SDS011;14241;49.260;10.496;2022-12-31T08:55:21;3.83;;;1.00;;
26600;SDS011;14241;49.260;10.496;2022-12-31T09:00:30;1.55;;;0.90;;
26600;SDS011;14241;49.260;10.496;2022-12-31T09:05:29;2.33;;;0.83;;
26600;SDS011;14241;49.260;10.496;2022-12-31T09:18:15;1.80;;;0.90;;
26600;SDS011;14241;49.260;10.496;2022-12-31T09:20:41;1.00;;;0.80;;
26600;SDS011;14241;49.260;10.496;2022-12-31T09:23:06;1.95;;;0.70;;
26600;SDS011;14241;49.260;10.496;2022-12-31T09:25:32;1.13;;;0.93;;
26600;SDS011;14241;49.260;10.496;2022-12-31T09:30:57;1.65;;;1.35;;
26600;SDS011;14241;49.260;10.496;2022-12-31T09:33:39;4.22;;;0.88;;
26600;SDS011;14241;49.260;10.496;2022-12-31T09:36:07;0.88;;;0.88;;
26600;SDS011;14241;49.260;10.496;2022-12-31T09:41:06;0.60;;;0.60;;
26600;SDS011;14241;49.260;10.496;2022-12-31T09:46:33;4.57;;;0.82;;
26600;SDS011;14241;49.260;10.496;2022-12-31T09:49:10;1.15;;;0.70;;
26600;SDS011;14241;49.260;10.496;2022-12-31T09:54:32;2.15;;;1.00;;
26600;SDS011;14241;49.260;10.496;2022-12-31T09:57:15;2.15;;;1.10;;
26600;SDS011;14241;49.260;10.496;2022-12-31T09:59:53;0.93;;;0.80;;
26600;SDS011;14241;49.260;10.496;2022-12-31T10:07:49;1.75;;;0.98;;
26600;SDS011;14241;49.260;10.496;2022-12-31T10:18:31;0.95;;;0.85;;
26600;SDS011;14241;49.260;10.496;2022-12-31T10:39:07;0.80;;;0.80;;
26600;SDS011;14241;49.260;10.496;2022-12-31T10:46:59;2.10;;;0.80;;
26600;SDS011;14241;49.260;10.496;2022-12-31T10:55:04;3.45;;;0.80;;
26600;SDS011;14241;49.260;10.496;2022-12-31T11:05:34;1.67;;;0.90;;
26600;SDS011;14241;49.260;10.496;2022-12-31T11:16:14;0.93;;;0.60;;
26600;SDS011;14241;49.260;10.496;2022-12-31T11:18:51;1.55;;;0.98;;
26600;SDS011;14241;49.260;10.496;2022-12-31T11:21:39;0.90;;;0.60;;
26600;SDS011;14241;49.260;10.496;2022-12-31T11:29:37;0.50;;;0.50;;
26600;SDS011;14241;49.260;10.496;2022-12-31T11:32:13;3.10;;;0.80;;
26600;SDS011;14241;49.260;10.496;2022-12-31T11:39:46;1.40;;;1.00;;
26600;SDS011;14241;49.260;10.496;2022-12-31T11:42:20;1.73;;;0.60;;
26600;SDS011;14241;49.260;10.496;2022-12-31T11:52:49;1.20;;;0.68;;
26600;SDS011;14241;49.260;10.496;2022-12-31T11:57:42;1.03;;;0.70;;
26600;SDS011;14241;49.260;10.496;2022-12-31T12:00:15;1.27;;;0.80;;
26600;SDS011;14241;49.260;10.496;2022-12-31T12:02:44;0.52;;;0.52;;
26600;SDS011;14241;49.260;10.496;2022-12-31T12:05:12;0.82;;;0.70;;
26600;SDS011;14241;49.260;10.496;2022-12-31T12:07:38;2.60;;;0.90;;
26600;SDS011;14241;49.260;10.496;2022-12-31T12:10:13;0.63;;;0.60;;
26600;SDS011;14241;49.260;10.496;2022-12-31T12:12:39;3.05;;;0.70;;
26600;SDS011;14241;49.260;10.496;2022-12-31T12:15:09;1.23;;;1.10;;
26600;SDS011;14241;49.260;10.496;2022-12-31T12:17:35;2.40;;;1.40;;
26600;SDS011;14241;49.260;10.496;2022-12-31T12:20:02;0.95;;;0.88;;
26600;SDS011;14241;49.260;10.496;2022-12-31T12:22:29;2.22;;;1.33;;
26600;SDS011;14241;49.260;10.496;2022-12-31T12:24:57;1.77;;;0.80;;
26600;SDS011;14241;49.260;10.496;2022-12-31T12:27:26;3.20;;;2.92;;
26600;SDS011;14241;49.260;10.496;2022-12-31T12:29:52;2.35;;;0.90;;
26600;SDS011;14241;49.260;10.496;2022-12-31T12:32:26;1.70;;;1.03;;
26600;SDS011;14241;49.260;10.496;2022-12-31T12:34:52;2.10;;;2.00;;
26600;SDS011;14241;49.260;10.496;2022-12-31T12:40:22;2.28;;;1.38;;
26600;SDS011;14241;49.260;10.496;2022-12-31T12:42:46;0.65;;;0.63;;
26600;SDS011;14241;49.260;10.496;2022-12-31T12:45:16;1.58;;;0.63;;
26600;SDS011;14241;49.260;10.496;2022-12-31T12:47:42;1.75;;;1.00;;
26600;SDS011;14241;49.260;10.496;2022-12-31T12:50:15;1.90;;;0.77;;
26600;SDS011;14241;49.260;10.496;2022-12-31T12:55:25;1.13;;;0.60;;
26600;SDS011;14241;49.260;10.496;2022-12-31T13:00:37;0.52;;;0.50;;
26600;SDS011;14241;49.260;10.496;2022-12-31T13:05:53;1.05;;;0.50;;
26600;SDS011;14241;49.260;10.496;2022-12-31T13:21:06;8.00;;;4.78;;
26600;SDS011;14241;49.260;10.496;2022-12-31T13:26:37;9.50;;;5.55;;
26600;SDS011;14241;49.260;10.496;2022-12-31T13:29:03;14.50;;;8.13;;
26600;SDS011;14241;49.260;10.496;2022-12-31T13:31:30;11.77;;;6.05;;
26600;SDS011;14241;49.260;10.496;2022-12-31T13:33:58;22.45;;;9.95;;
26600;SDS011;14241;49.260;10.496;2022-12-31T13:36:25;33.95;;;14.20;;
26600;SDS011;14241;49.260;10.496;2022-12-31T13:38:51;48.55;;;20.92;;
26600;SDS011;14241;49.260;10.496;2022-12-31T13:41:21;13.55;;;6.88;;
26600;SDS011;14241;49.260;10.496;2022-12-31T13:46:40;8.02;;;3.58;;
26600;SDS011;14241;49.260;10.496;2022-12-31T13:49:15;11.82;;;5.22;;
26600;SDS011;14241;49.260;10.496;2022-12-31T13:51:46;7.57;;;3.58;;
26600;SDS011;14241;49.260;10.496;2022-12-31T13:54:25;8.85;;;4.90;;
26600;SDS011;14241;49.260;10.496;2022-12-31T13:56:52;2.70;;;1.65;;
26600;SDS011;14241;49.260;10.496;2022-12-31T14:04:32;3.33;;;1.30;;
26600;SDS011;14241;49.260;10.496;2022-12-31T14:07:01;3.30;;;1.48;;
26600;SDS011;14241;49.260;10.496;2022-12-31T14:09:31;11.10;;;4.25;;
26600;SDS011;14241;49.260;10.496;2022-12-31T14:12:07;8.23;;;3.95;;
26600;SDS011;14241;49.260;10.496;2022-12-31T14:14:39;3.95;;;1.98;;
26600;SDS011;14241;49.260;10.496;2022-12-31T14:17:13;2.28;;;1.40;;
26600;SDS011;14241;49.260;10.496;2022-12-31T14:24:44;1.00;;;0.90;;
26600;SDS011;14241;49.260;10.496;2022-12-31T14:27:53;8.48;;;0.85;;
26600;SDS011;14241;49.260;10.496;2022-12-31T14:51:13;1.67;;;1.20;;
26600;SDS011;14241;49.260;10.496;2022-12-31T14:53:39;1.42;;;0.98;;
26600;SDS011;14241;49.260;10.496;2022-12-31T14:56:26;1.65;;;1.30;;
26600;SDS011;14241;49.260;10.496;2022-12-31T14:58:55;1.77;;;1.20;;
26600;SDS011;14241;49.260;10.496;2022-12-31T15:01:21;1.45;;;1.30;;
26600;SDS011;14241;49.260;10.496;2022-12-31T15:03:49;3.03;;;1.20;;
26600;SDS011;14241;49.260;10.496;2022-12-31T15:24:23;1.92;;;1.50;;
26600;SDS011;14241;49.260;10.496;2022-12-31T15:26:52;3.42;;;1.98;;
26600;SDS011;14241;49.260;10.496;2022-12-31T15:29:35;3.33;;;1.75;;
26600;SDS011;14241;49.260;10.496;2022-12-31T15:34:31;4.00;;;1.67;;
26600;SDS011;14241;49.260;10.496;2022-12-31T15:36:59;3.35;;;1.60;;
26600;SDS011;14241;49.260;10.496;2022-12-31T15:39:26;2.03;;;1.83;;
26600;SDS011;14241;49.260;10.496;2022-12-31T15:41:59;4.10;;;1.77;;
26600;SDS011;14241;49.260;10.496;2022-12-31T15:44:27;2.23;;;1.97;;
26600;SDS011;14241;49.260;10.496;2022-12-31T15:46:55;2.58;;;1.73;;
26600;SDS011;14241;49.260;10.496;2022-12-31T15:49:21;2.88;;;1.77;;
26600;SDS011;14241;49.260;10.496;2022-12-31T15:54:23;3.85;;;1.98;;
26600;SDS011;14241;49.260;10.496;2022-12-31T15:56:49;2.92;;;2.00;;
26600;SDS011;14241;49.260;10.496;2022-12-31T15:59:16;3.03;;;1.75;;
26600;SDS011;14241;49.260;10.496;2022-12-31T16:01:42;4.15;;;1.77;;
26600;SDS011;14241;49.260;10.496;2022-12-31T16:04:13;2.63;;;1.88;;
26600;SDS011;14241;49.260;10.496;2022-12-31T16:06:40;2.47;;;2.03;;
26600;SDS011;14241;49.260;10.496;2022-12-31T16:09:05;2.60;;;2.15;;
26600;SDS011;14241;49.260;10.496;2022-12-31T16:11:34;2.72;;;2.10;;
26600;SDS011;14241;49.260;10.496;2022-12-31T16:14:00;6.28;;;1.80;;
26600;SDS011;14241;49.260;10.496;2022-12-31T16:16:29;3.00;;;2.22;;
26600;SDS011;14241;49.260;10.496;2022-12-31T16:18:56;3.92;;;2.28;;
26600;SDS011;14241;49.260;10.496;2022-12-31T16:21:34;3.97;;;2.38;;
26600;SDS011;14241;49.260;10.496;2022-12-31T16:24:01;4.10;;;2.30;;
26600;SDS011;14241;49.260;10.496;2022-12-31T16:26:38;5.43;;;2.20;;
26600;SDS011;14241;49.260;10.496;2022-12-31T16:29:10;5.25;;;3.05;;
26600;SDS011;14241;49.260;10.496;2022-12-31T16:31:37;5.63;;;4.20;;
26600;SDS011;14241;49.260;10.496;2022-12-31T16:34:25;7.80;;;3.50;;
26600;SDS011;14241;49.260;10.496;2022-12-31T16:37:00;2.80;;;2.22;;
26600;SDS011;14241;49.260;10.496;2022-12-31T16:41:50;4.30;;;1.98;;
26600;SDS011;14241;49.260;10.496;2022-12-31T16:44:28;4.72;;;2.03;;
26600;SDS011;14241;49.260;10.496;2022-12-31T16:46:54;2.10;;;1.77;;
26600;SDS011;14241;49.260;10.496;2022-12-31T16:49:21;3.22;;;1.90;;
26600;SDS011;14241;49.260;10.496;2022-12-31T16:51:46;2.60;;;1.90;;
26600;SDS011;14241;49.260;10.496;2022-12-31T16:54:22;3.80;;;2.47;;
26600;SDS011;14241;49.260;10.496;2022-12-31T16:56:49;3.42;;;2.10;;
26600;SDS011;14241;49.260;10.496;2022-12-31T16:59:23;5.20;;;2.30;;
26600;SDS011;14241;49.260;10.496;2022-12-31T17:01:50;3.22;;;2.78;;
26600;SDS011;14241;49.260;10.496;2022-12-31T17:04:19;4.43;;;2.40;;
26600;SDS011;14241;49.260;10.496;2022-12-31T17:06:46;3.10;;;2.17;;
26600;SDS011;14241;49.260;10.496;2022-12-31T17:09:12;3.13;;;2.30;;
26600;SDS011;14241;49.260;10.496;2022-12-31T17:11:42;5.07;;;1.85;;
26600;SDS011;14241;49.260;10.496;2022-12-31T17:16:34;2.07;;;1.70;;
26600;SDS011;14241;49.260;10.496;2022-12-31T17:19:00;4.05;;;1.90;;
26600;SDS011;14241;49.260;10.496;2022-12-31T17:21:26;2.55;;;1.98;;
26600;SDS011;14241;49.260;10.496;2022-12-31T17:23:53;2.42;;;2.13;;
26600;SDS011;14241;49.260;10.496;2022-12-31T17:26:21;2.60;;;1.70;;
26600;SDS011;14241;49.260;10.496;2022-12-31T17:28:48;3.38;;;2.00;;
26600;SDS011;14241;49.260;10.496;2022-12-31T17:31:28;3.45;;;2.00;;
26600;SDS011;14241;49.260;10.496;2022-12-31T17:33:53;2.00;;;1.80;;
26600;SDS011;14241;49.260;10.496;2022-12-31T17:36:27;5.97;;;1.85;;
26600;SDS011;14241;49.260;10.496;2022-12-31T17:38:53;1.75;;;1.65;;
26600;SDS011;14241;49.260;10.496;2022-12-31T17:41:25;3.00;;;1.90;;
26600;SDS011;14241;49.260;10.496;2022-12-31T17:43:54;2.70;;;2.03;;
26600;SDS011;14241;49.260;10.496;2022-12-31T17:46:20;4.32;;;2.30;;
26600;SDS011;14241;49.260;10.496;2022-12-31T17:48:49;4.55;;;2.35;;
26600;SDS011;14241;49.260;10.496;2022-12-31T17:51:14;3.10;;;1.95;;
26600;SDS011;14241;49.260;10.496;2022-12-31T17:53:40;3.50;;;2.20;;
26600;SDS011;14241;49.260;10.496;2022-12-31T17:56:06;4.22;;;2.13;;
26600;SDS011;14241;49.260;10.496;2022-12-31T17:58:35;6.80;;;2.45;;
26600;SDS011;14241;49.260;10.496;2022-12-31T18:01:04;5.20;;;2.33;;
26600;SDS011;14241;49.260;10.496;2022-12-31T18:03:29;3.65;;;2.40;;
26600;SDS011;14241;49.260;10.496;2022-12-31T18:05:55;2.80;;;2.20;;
26600;SDS011;14241;49.260;10.496;2022-12-31T18:08:20;3.83;;;2.40;;
26600;SDS011;14241;49.260;10.496;2022-12-31T18:10:45;3.72;;;2.45;;
26600;SDS011;14241;49.260;10.496;2022-12-31T18:13:15;2.65;;;2.40;;
26600;SDS011;14241;49.260;10.496;2022-12-31T18:15:41;4.82;;;2.80;;
26600;SDS011;14241;49.260;10.496;2022-12-31T18:18:15;6.93;;;4.38;;
26600;SDS011;14241;49.260;10.496;2022-12-31T18:20:41;6.10;;;4.55;;
26600;SDS011;14241;49.260;10.496;2022-12-31T18:23:08;5.38;;;3.97;;
26600;SDS011;14241;49.260;10.496;2022-12-31T18:25:36;4.70;;;3.53;;
26600;SDS011;14241;49.260;10.496;2022-12-31T18:28:04;5.60;;;3.63;;
26600;SDS011;14241;49.260;10.496;2022-12-31T18:30:29;8.50;;;4.32;;
26600;SDS011;14241;49.260;10.496;2022-12-31T18:32:55;6.30;;;4.40;;
26600;SDS011;14241;49.260;10.496;2022-12-31T18:35:20;5.47;;;4.22;;
26600;SDS011;14241;49.260;10.496;2022-12-31T18:37:45;5.32;;;4.18;;
26600;SDS011;14241;49.260;10.496;2022-12-31T18:40:12;6.47;;;4.47;;
26600;SDS011;14241;49.260;10.496;2022-12-31T18:42:37;6.45;;;4.55;;
26600;SDS011;14241;49.260;10.496;2022-12-31T18:45:03;8.32;;;5.30;;
26600;SDS011;14241;49.260;10.496;2022-12-31T18:47:28;7.75;;;5.10;;
26600;SDS011;14241;49.260;10.496;2022-12-31T18:49:53;6.95;;;5.38;;
26600;SDS011;14241;49.260;10.496;2022-12-31T18:52:19;8.48;;;5.10;;
26600;SDS011;14241;49.260;10.496;2022-12-31T18:54:45;8.52;;;4.00;;